createdAt,value
2018-07-04T00:02:01.721Z,97914.00
2018-07-04T00:04:52.784Z,97914.00
2018-07-04T00:07:45.620Z,97913.00
2018-07-04T00:10:36.537Z,97909.00
2018-07-04T00:13:28.936Z,97913.00
2018-07-04T00:16:20.698Z,97910.00
2018-07-04T00:19:15.783Z,97912.00
2018-07-04T00:22:10.307Z,97911.00
2018-07-04T00:25:06.806Z,97920.00
2018-07-04T00:27:58.556Z,97921.00
2018-07-04T00:30:56.222Z,97917.00
2018-07-04T00:33:51.100Z,97921.00
2018-07-04T00:36:42.766Z,97918.00
2018-07-04T00:39:35.699Z,97920.00
2018-07-04T00:42:27.520Z,97918.00
2018-07-04T00:45:17.557Z,97923.00
2018-07-04T00:48:09.242Z,97924.00
2018-07-04T00:51:00.642Z,97927.00
2018-07-04T00:53:50.822Z,97924.00
2018-07-04T00:56:47.804Z,97929.00
2018-07-04T00:59:38.298Z,97921.00
2018-07-04T01:02:30.043Z,97923.00
2018-07-04T01:05:22.682Z,97925.00
2018-07-04T01:08:14.269Z,97920.00
2018-07-04T01:11:05.963Z,97916.00
2018-07-04T01:13:57.440Z,97917.00
2018-07-04T01:16:48.718Z,97914.00
2018-07-04T01:19:45.942Z,97916.00
2018-07-04T01:22:37.761Z,97915.00
2018-07-04T01:25:27.780Z,97915.00
2018-07-04T01:28:19.142Z,97913.00
2018-07-04T01:31:08.984Z,97910.00
2018-07-04T01:34:01.139Z,97911.00
2018-07-04T01:36:53.979Z,97909.00
2018-07-04T01:39:44.763Z,97910.00
2018-07-04T01:42:40.545Z,97911.00
2018-07-04T01:45:33.698Z,97909.00
2018-07-04T01:48:25.702Z,97906.00
2018-07-04T01:51:19.025Z,97904.00
2018-07-04T01:54:08.937Z,97900.00
2018-07-04T01:56:59.620Z,97898.00
2018-07-04T01:59:52.615Z,97901.00
2018-07-04T02:02:42.598Z,97899.00
2018-07-04T02:05:33.461Z,97896.00
2018-07-04T02:08:24.523Z,97900.00
2018-07-04T02:11:15.739Z,97898.00
2018-07-04T02:14:15.780Z,97898.00
2018-07-04T02:17:07.981Z,97891.00
2018-07-04T02:19:58.637Z,97890.00
2018-07-04T02:22:49.799Z,97894.00
2018-07-04T02:25:41.058Z,97892.00
2018-07-04T02:28:32.142Z,97889.00
2018-07-04T02:31:24.125Z,97889.00
2018-07-04T02:34:14.781Z,97891.00
2018-07-04T02:37:06.602Z,97893.00
2018-07-04T02:39:57.405Z,97891.00
2018-07-04T02:42:47.241Z,97894.00
2018-07-04T02:45:39.698Z,97891.00
2018-07-04T02:48:30.313Z,97890.00
2018-07-04T02:51:21.761Z,97887.00
2018-07-04T02:54:11.324Z,97886.00
2018-07-04T02:57:04.837Z,97886.00
2018-07-04T02:59:55.700Z,97889.00
2018-07-04T03:02:49.479Z,97884.00
2018-07-04T03:05:39.357Z,97887.00
2018-07-04T03:08:30.221Z,97880.00
2018-07-04T03:11:21.377Z,97880.00
2018-07-04T03:14:13.180Z,97878.00
2018-07-04T03:17:04.318Z,97881.00
2018-07-04T03:19:59.581Z,97885.00
2018-07-04T03:22:51.637Z,97880.00
2018-07-04T03:25:44.040Z,97879.00
2018-07-04T03:28:34.924Z,97879.00
2018-07-04T03:31:26.122Z,97876.00
2018-07-04T03:34:15.823Z,97880.00
2018-07-04T03:37:07.302Z,97881.00
2018-07-04T03:39:58.096Z,97886.00
2018-07-04T03:42:48.967Z,97888.00
2018-07-04T03:45:42.022Z,97889.00
2018-07-04T03:48:33.100Z,97890.00
2018-07-04T03:51:22.843Z,97893.00
2018-07-04T03:54:14.180Z,97900.00
2018-07-04T03:57:12.919Z,97896.00
2018-07-04T04:00:05.823Z,97900.00
2018-07-04T04:02:57.077Z,97896.00
2018-07-04T04:05:49.620Z,97901.00
2018-07-04T04:08:35.702Z,97901.00
2018-07-04T04:11:26.882Z,97901.00
2018-07-04T04:14:19.098Z,97899.00
2018-07-04T04:17:10.378Z,97898.00
2018-07-04T04:20:02.564Z,97907.00
2018-07-04T04:22:53.081Z,97903.00
2018-07-04T04:25:44.480Z,97904.00
2018-07-04T04:28:37.043Z,97912.00
2018-07-04T04:31:27.343Z,97916.00
2018-07-04T04:34:18.140Z,97921.00
2018-07-04T04:37:08.798Z,97915.00
2018-07-04T04:39:57.238Z,97907.00
2018-07-04T04:42:48.601Z,97901.00
2018-07-04T22:35:45.283Z,97777.00
2018-07-04T22:38:36.241Z,97774.00
2018-07-04T22:41:33.602Z,97774.00
2018-07-04T22:44:24.298Z,97775.00
2018-07-04T22:47:15.496Z,97775.00
2018-07-04T22:50:07.217Z,97775.00
2018-07-04T22:53:05.621Z,97776.00
2018-07-04T22:56:02.801Z,97770.00
2018-07-04T22:58:54.724Z,97769.00
2018-07-04T23:01:45.437Z,97773.00
2018-07-04T23:04:36.680Z,97769.00
2018-07-04T23:07:31.276Z,97772.00
2018-07-04T23:10:24.158Z,97767.00
2018-07-04T23:13:14.961Z,97774.00
2018-07-04T23:16:07.014Z,97777.00
2018-07-04T23:18:57.099Z,97776.00
2018-07-04T23:21:47.707Z,97773.00
2018-07-04T23:24:39.783Z,97780.00
2018-07-04T23:27:33.219Z,97783.00
2018-07-04T23:30:24.702Z,97767.00
2018-07-04T23:33:17.080Z,97766.00
2018-07-04T23:36:07.999Z,97762.00
2018-07-04T23:38:59.664Z,97763.00
2018-07-04T23:41:50.097Z,97768.00
2018-07-04T23:44:40.867Z,97765.00
2018-07-04T23:47:33.420Z,97769.00
2018-07-04T23:50:23.623Z,97771.00
2018-07-04T23:53:14.726Z,97766.00
2018-07-04T23:56:06.766Z,97761.00
2018-07-04T23:58:56.399Z,97748.00
